createdAt,value
2023-05-01T00:00:30.082Z,92.19
2023-05-01T00:03:00.856Z,92.46
2023-05-01T00:05:31.858Z,92.53
2023-05-01T00:08:04.529Z,92.67
2023-05-01T00:10:38.108Z,92.78
2023-05-01T00:13:08.621Z,92.78
2023-05-01T00:15:43.410Z,92.86
2023-05-01T00:18:15.657Z,92.72
2023-05-01T00:20:48.700Z,92.58
2023-05-01T00:23:19.241Z,92.03
2023-05-01T00:25:50.148Z,91.87
2023-05-01T00:28:21.879Z,92.16
2023-05-01T00:30:53.659Z,92.21
2023-05-01T00:33:24.434Z,91.99
2023-05-01T00:35:54.802Z,91.93
2023-05-01T00:38:26.522Z,91.73
2023-05-01T00:40:58.365Z,91.33
2023-05-01T00:43:29.331Z,91.09
2023-05-01T00:45:59.432Z,91.30
2023-05-01T00:48:30.546Z,91.42
2023-05-01T00:51:03.736Z,91.85
2023-05-01T00:53:36.329Z,91.55
2023-05-01T00:56:07.872Z,91.12
2023-05-01T00:58:40.719Z,91.50
2023-05-01T01:01:11.510Z,91.91
2023-05-01T01:03:42.871Z,92.07
2023-05-01T01:06:47.280Z,91.95
2023-05-01T01:09:44.830Z,91.84
2023-05-01T01:12:16.800Z,92.09
2023-05-01T01:14:52.598Z,91.59
2023-05-01T01:18:06.468Z,90.71
2023-05-01T01:21:03.753Z,90.74
2023-05-01T01:23:43.759Z,90.89
2023-05-01T01:26:33.293Z,91.10
2023-05-01T01:29:38.020Z,91.18
2023-05-01T01:32:46.738Z,91.32
2023-05-01T01:35:28.896Z,91.49
2023-05-01T01:38:21.237Z,91.51
2023-05-01T01:41:27.988Z,91.38
2023-05-01T01:44:02.746Z,89.28
2023-05-01T01:46:39.476Z,90.75
2023-05-01T01:49:19.475Z,91.42
2023-05-01T01:51:53.773Z,91.31
2023-05-01T01:54:35.020Z,91.27
2023-05-01T01:57:09.715Z,91.25
2023-05-01T01:59:42.308Z,91.59
2023-05-01T02:02:13.753Z,91.43
2023-05-01T02:04:47.228Z,91.66
2023-05-01T02:07:19.069Z,91.84
2023-05-01T02:09:51.983Z,91.69
2023-05-01T02:12:24.837Z,91.58
2023-05-01T02:14:58.140Z,91.17
2023-05-01T02:17:30.587Z,91.66
2023-05-01T02:20:02.154Z,91.78
2023-05-01T02:22:34.924Z,91.61
2023-05-01T02:25:06.362Z,91.60
2023-05-01T02:27:46.566Z,91.36
2023-05-01T02:30:19.974Z,90.85
2023-05-01T02:32:50.748Z,91.34
2023-05-01T02:35:22.772Z,92.06
2023-05-01T02:37:53.913Z,91.83
2023-05-01T02:40:23.938Z,91.74
2023-05-01T02:42:55.298Z,91.73
2023-05-01T02:45:27.914Z,91.78
2023-05-01T02:48:01.026Z,92.09
2023-05-01T02:50:32.223Z,92.15
2023-05-01T02:53:04.268Z,92.00
2023-05-01T02:55:49.615Z,91.41
2023-05-01T02:58:21.612Z,91.40
2023-05-01T03:00:52.053Z,91.43
2023-05-01T03:03:23.466Z,91.20
2023-05-01T03:05:54.499Z,91.29
2023-05-01T03:08:24.787Z,91.53
2023-05-01T03:10:55.603Z,91.69
2023-05-01T03:13:28.100Z,91.51
2023-05-01T03:15:59.512Z,91.36
2023-05-01T03:18:29.774Z,91.42
2023-05-01T03:20:59.648Z,91.45
2023-05-01T03:23:30.812Z,91.64
2023-05-01T03:26:02.567Z,92.00
2023-05-01T03:28:33.647Z,92.02
2023-05-01T03:31:04.070Z,92.04
2023-05-01T03:33:35.134Z,92.27
2023-05-01T03:36:07.186Z,92.33
2023-05-01T03:38:38.502Z,92.26
2023-05-01T03:41:14.352Z,91.97
2023-05-01T03:44:03.338Z,91.80
2023-05-01T03:46:46.370Z,91.29
2023-05-01T03:49:23.387Z,90.78
2023-05-01T03:51:54.885Z,90.84
2023-05-01T03:54:27.474Z,91.20
2023-05-01T03:57:02.568Z,91.01
2023-05-01T03:59:33.585Z,91.79
2023-05-01T04:02:06.209Z,92.58
2023-05-01T04:04:39.458Z,92.34
2023-05-01T04:07:10.812Z,92.01
2023-05-01T04:09:41.178Z,92.42
2023-05-01T04:12:11.051Z,92.39
2023-05-01T04:14:43.115Z,92.48
2023-05-01T04:17:14.433Z,92.08
2023-05-01T04:19:45.429Z,92.16
2023-05-01T04:22:15.703Z,92.84
2023-05-01T04:24:46.807Z,92.85
2023-05-01T04:27:17.592Z,92.35
2023-05-01T04:29:47.846Z,92.50
2023-05-01T04:32:18.623Z,93.08
2023-05-01T04:34:49.470Z,93.43
2023-05-01T04:37:21.087Z,93.02
2023-05-01T04:39:52.091Z,93.89
2023-05-01T04:42:24.330Z,94.26
2023-05-01T04:44:55.257Z,94.63
2023-05-01T04:47:27.634Z,94.94
2023-05-01T04:49:58.063Z,94.89
2023-05-01T04:52:28.253Z,95.55
2023-05-01T04:55:02.033Z,95.43
2023-05-01T04:57:35.812Z,95.26
2023-05-01T05:00:09.703Z,95.47
2023-05-01T05:02:48.783Z,95.23
2023-05-01T05:05:19.559Z,94.88
2023-05-01T05:07:52.450Z,94.95
2023-05-01T05:10:48.885Z,94.12
2023-05-01T05:13:30.112Z,94.06
2023-05-01T05:16:07.960Z,93.68
2023-05-01T05:18:38.887Z,93.51
2023-05-01T05:21:12.376Z,93.89
2023-05-01T05:23:49.263Z,93.93
2023-05-01T05:26:19.762Z,94.00
2023-05-01T05:28:52.854Z,94.04
2023-05-01T05:31:23.572Z,94.19
2023-05-01T05:33:53.440Z,94.41
2023-05-01T05:36:28.852Z,94.37
2023-05-01T05:39:00.532Z,94.12
2023-05-01T05:41:31.168Z,94.35
2023-05-01T05:44:04.264Z,94.68
2023-05-01T05:46:35.547Z,94.57
2023-05-01T05:49:06.520Z,94.41
2023-05-01T05:51:36.366Z,94.83
2023-05-01T05:54:08.915Z,94.80
2023-05-01T05:56:39.765Z,94.92
2023-05-01T05:59:10.024Z,94.79
2023-05-01T06:01:42.388Z,94.82
2023-05-01T06:04:13.043Z,94.38
2023-05-01T06:06:45.712Z,94.65
2023-05-01T06:09:18.393Z,95.01
2023-05-01T06:11:49.488Z,95.19
2023-05-01T06:14:20.204Z,95.26
2023-05-01T06:16:50.979Z,95.69
2023-05-01T06:19:21.631Z,95.77
2023-05-01T06:21:55.290Z,96.00
2023-05-01T06:24:25.792Z,96.13
2023-05-01T06:27:01.358Z,96.18
2023-05-01T06:29:32.494Z,96.37
2023-05-01T06:32:02.460Z,96.39
2023-05-01T06:34:33.086Z,96.54
2023-05-01T06:37:06.289Z,96.68
2023-05-01T06:39:37.481Z,96.21
2023-05-01T06:42:08.886Z,96.33
2023-05-01T06:44:42.058Z,96.20
2023-05-01T06:47:13.275Z,95.86
2023-05-01T06:49:44.840Z,96.07
2023-05-01T06:52:14.764Z,96.41
2023-05-01T06:54:44.976Z,96.67
2023-05-01T06:57:15.221Z,96.69
2023-05-01T06:59:45.229Z,96.90
2023-05-01T07:02:15.665Z,97.04
2023-05-01T07:04:46.521Z,97.03
2023-05-01T07:07:17.007Z,97.02
2023-05-01T07:09:47.096Z,96.94
2023-05-01T07:12:19.171Z,97.00
2023-05-01T07:14:50.333Z,97.17
2023-05-01T07:17:21.843Z,97.42
2023-05-01T07:19:51.758Z,97.35
2023-05-01T07:22:22.548Z,97.56
2023-05-01T07:24:53.377Z,97.43
2023-05-01T07:27:23.120Z,97.45
2023-05-01T07:29:53.552Z,96.94
2023-05-01T07:32:23.344Z,96.87
2023-05-01T07:34:54.396Z,96.22
2023-05-01T07:37:25.605Z,95.86
2023-05-01T07:39:56.174Z,96.17
2023-05-01T07:42:31.009Z,95.64
2023-05-01T07:45:02.146Z,94.79
2023-05-01T07:47:32.938Z,94.64
2023-05-01T07:50:03.512Z,95.18
2023-05-01T07:52:34.502Z,94.86
2023-05-01T07:55:05.587Z,94.77
2023-05-01T07:57:37.495Z,94.44
2023-05-01T08:00:09.302Z,94.53
2023-05-01T08:02:45.564Z,95.13
2023-05-01T08:05:15.850Z,95.30
2023-05-01T08:07:46.971Z,95.08
2023-05-01T08:10:17.656Z,95.06
2023-05-01T08:12:47.463Z,95.21
2023-05-01T08:15:18.479Z,95.26
2023-05-01T08:17:50.100Z,95.42
2023-05-01T08:20:20.539Z,95.48
2023-05-01T08:22:51.087Z,95.94
2023-05-01T08:25:21.254Z,95.87
2023-05-01T08:27:51.345Z,96.10
2023-05-01T08:30:22.324Z,96.38
2023-05-01T08:32:52.682Z,96.22
2023-05-01T08:35:23.910Z,96.36
2023-05-01T08:37:54.040Z,96.70
2023-05-01T08:40:27.456Z,96.51
2023-05-01T08:42:58.432Z,96.44
2023-05-01T08:45:32.222Z,97.00
2023-05-01T08:48:04.104Z,96.61
2023-05-01T08:50:40.448Z,96.33
2023-05-01T08:53:15.082Z,96.46
2023-05-01T08:55:48.951Z,96.60
2023-05-01T08:58:21.400Z,96.51
2023-05-01T09:00:51.721Z,96.42
2023-05-01T09:03:23.262Z,96.22
2023-05-01T09:05:55.519Z,96.48
2023-05-01T09:08:25.505Z,96.97
2023-05-01T09:10:58.171Z,97.17
2023-05-01T09:13:28.809Z,97.49
2023-05-01T09:15:59.057Z,97.48
2023-05-01T09:18:29.988Z,97.54
2023-05-01T09:21:00.404Z,97.71
2023-05-01T09:26:28.101Z,97.97
2023-05-01T09:28:59.458Z,98.18
2023-05-01T09:31:33.461Z,98.24
2023-05-01T09:34:06.194Z,98.24
2023-05-01T09:36:38.669Z,98.24
2023-05-01T09:39:09.159Z,98.30
2023-05-01T09:41:53.673Z,98.36
2023-05-01T09:44:25.706Z,98.32
2023-05-01T09:46:56.556Z,98.23
2023-05-01T09:49:48.458Z,98.46
2023-05-01T09:52:19.232Z,98.59
2023-05-01T09:54:49.985Z,98.55
2023-05-01T09:57:39.382Z,98.40
2023-05-01T10:00:11.435Z,98.35
2023-05-01T10:02:43.347Z,98.36
2023-05-01T10:05:15.711Z,98.46
2023-05-01T10:08:04.649Z,98.50
2023-05-01T10:10:35.206Z,98.36
2023-05-01T10:13:18.934Z,98.28
2023-05-01T10:15:51.652Z,98.37
2023-05-01T10:18:23.058Z,98.22
2023-05-01T10:20:54.463Z,98.08
2023-05-01T10:23:26.486Z,97.74
2023-05-01T10:26:00.752Z,97.75
2023-05-01T10:28:32.323Z,97.74
2023-05-01T10:31:03.822Z,97.15
2023-05-01T10:33:34.560Z,96.90
2023-05-01T10:36:05.772Z,96.65
2023-05-01T10:38:36.912Z,96.37
2023-05-01T10:41:07.747Z,96.13
2023-05-01T10:43:37.495Z,95.50
2023-05-01T10:46:12.317Z,95.50
2023-05-01T10:48:46.093Z,95.21
2023-05-01T10:51:29.000Z,94.01
2023-05-01T10:54:15.021Z,93.20
2023-05-01T10:56:45.735Z,91.81
2023-05-01T10:59:17.099Z,90.53
2023-05-01T11:01:55.288Z,90.09
2023-05-01T11:04:31.624Z,89.58
2023-05-01T11:07:08.917Z,88.16
2023-05-01T11:09:40.799Z,85.94
2023-05-01T11:12:13.496Z,76.14
2023-05-01T11:14:59.752Z,69.60
2023-05-01T11:17:48.939Z,66.95
2023-05-01T11:20:28.771Z,63.89
2023-05-01T11:23:00.689Z,69.80
2023-05-01T11:25:34.147Z,64.27
2023-05-01T11:28:08.297Z,60.97
2023-05-01T11:30:42.288Z,58.24
2023-05-01T11:33:13.710Z,55.90
2023-05-01T11:35:45.009Z,56.50
2023-05-01T11:38:21.395Z,55.91
2023-05-01T11:40:57.830Z,54.88
2023-05-01T11:43:30.086Z,54.15
2023-05-01T11:46:04.013Z,53.95
2023-05-01T11:48:34.595Z,51.33
2023-05-01T11:51:14.536Z,54.57
2023-05-01T11:53:45.228Z,52.81
2023-05-01T11:56:26.966Z,54.13
2023-05-01T11:59:00.455Z,53.33
2023-05-01T12:01:38.264Z,52.40
2023-05-01T12:04:10.176Z,52.11
2023-05-01T12:06:47.393Z,54.42
2023-05-01T12:09:19.073Z,59.83
2023-05-01T12:11:53.303Z,62.51
2023-05-01T12:14:25.769Z,64.57
2023-05-01T12:16:56.749Z,63.63
2023-05-01T12:19:30.658Z,54.85
2023-05-01T12:22:09.244Z,53.01
2023-05-01T12:24:39.500Z,58.64
2023-05-01T12:27:11.114Z,54.17
2023-05-01T12:29:48.286Z,53.77
2023-05-01T12:32:18.835Z,47.85
2023-05-01T12:34:49.695Z,51.55
2023-05-01T12:37:20.564Z,50.13
2023-05-01T12:39:50.834Z,48.86
2023-05-01T12:42:20.617Z,48.52
2023-05-01T12:45:02.318Z,48.66
2023-05-01T12:47:39.289Z,52.11
2023-05-01T12:50:10.044Z,47.74
2023-05-01T12:52:40.566Z,49.78
2023-05-01T12:55:11.624Z,47.44
2023-05-01T12:57:58.065Z,49.99
2023-05-01T13:00:28.214Z,53.25
2023-05-01T13:03:06.446Z,55.71
2023-05-01T13:05:37.262Z,51.73
2023-05-01T13:08:07.959Z,51.59
2023-05-01T13:10:38.199Z,52.53
2023-05-01T13:13:08.089Z,51.89
2023-05-01T13:15:39.809Z,53.01
2023-05-01T13:18:11.046Z,54.25
2023-05-01T13:20:42.712Z,53.69
2023-05-01T13:23:14.205Z,52.99
2023-05-01T13:25:44.393Z,53.85
2023-05-01T13:28:21.819Z,52.53
2023-05-01T13:30:55.197Z,50.66
2023-05-01T13:33:25.240Z,53.12
2023-05-01T13:35:54.965Z,52.65
2023-05-01T13:38:26.305Z,54.74
2023-05-01T13:40:57.101Z,55.31
2023-05-01T13:43:27.221Z,54.96
2023-05-01T13:46:01.482Z,55.16
2023-05-01T13:48:33.271Z,56.24
2023-05-01T13:51:03.650Z,54.06
2023-05-01T13:53:33.626Z,54.77
2023-05-01T13:56:08.766Z,55.55
2023-05-01T13:58:38.438Z,57.34
2023-05-01T14:01:22.977Z,55.44
2023-05-01T14:04:01.602Z,54.64
2023-05-01T14:06:33.659Z,55.77
2023-05-01T14:09:05.133Z,56.91
2023-05-01T14:11:35.475Z,58.29
2023-05-01T14:14:06.139Z,60.61
2023-05-01T14:16:36.486Z,55.31
2023-05-01T14:19:07.041Z,55.01
2023-05-01T14:21:43.959Z,56.29
2023-05-01T14:24:15.320Z,56.02
2023-05-01T14:26:46.409Z,54.69
2023-05-01T14:29:24.121Z,53.95
2023-05-01T14:31:57.607Z,54.88
2023-05-01T14:34:29.256Z,55.16
2023-05-01T14:37:00.469Z,55.25
2023-05-01T14:39:34.701Z,54.89
2023-05-01T14:42:07.252Z,54.96
2023-05-01T14:44:44.498Z,53.37
2023-05-01T14:47:22.417Z,55.04
2023-05-01T14:49:56.394Z,52.05
2023-05-01T14:52:27.670Z,52.45
2023-05-01T14:54:59.490Z,54.47
2023-05-01T14:57:30.132Z,55.07
2023-05-01T14:59:59.951Z,54.04
2023-05-01T15:02:32.053Z,54.36
2023-05-01T15:05:02.759Z,50.44
2023-05-01T15:07:34.932Z,50.92
2023-05-01T15:10:06.044Z,52.22
2023-05-01T15:12:36.791Z,53.01
2023-05-01T15:15:09.518Z,53.15
2023-05-01T15:17:39.828Z,51.80
2023-05-01T15:20:10.981Z,55.73
2023-05-01T15:22:41.585Z,55.14
2023-05-01T15:25:12.884Z,54.13
2023-05-01T15:27:44.631Z,55.28
2023-05-01T15:30:16.683Z,57.32
2023-05-01T15:32:47.712Z,58.62
2023-05-01T15:35:18.683Z,61.26
2023-05-01T15:37:49.171Z,59.90
2023-05-01T15:40:19.512Z,60.94
2023-05-01T15:42:49.762Z,60.27
2023-05-01T15:45:21.021Z,59.06
2023-05-01T15:47:51.217Z,60.88
2023-05-01T15:50:22.228Z,62.40
2023-05-01T15:52:53.776Z,62.17
2023-05-01T15:55:24.983Z,62.30
2023-05-01T15:57:55.861Z,61.99
2023-05-01T16:00:26.301Z,62.45
2023-05-01T16:02:58.364Z,63.52
2023-05-01T16:05:29.402Z,64.97
2023-05-01T16:08:01.770Z,65.38
2023-05-01T16:10:38.316Z,66.75
2023-05-01T16:13:09.967Z,66.66
2023-05-01T16:15:41.603Z,68.37
2023-05-01T16:18:21.920Z,68.61
2023-05-01T16:20:55.852Z,67.53
2023-05-01T16:23:27.959Z,68.93
2023-05-01T16:25:58.887Z,66.78
2023-05-01T16:28:29.336Z,68.17
2023-05-01T16:30:59.155Z,67.08
2023-05-01T16:33:31.075Z,65.83
2023-05-01T16:36:01.915Z,64.36
2023-05-01T16:38:34.777Z,64.69
2023-05-01T16:41:05.409Z,66.88
2023-05-01T16:43:35.686Z,68.19
2023-05-01T16:46:06.277Z,67.52
2023-05-01T16:48:37.589Z,67.52
2023-05-01T16:51:08.486Z,69.69
2023-05-01T16:53:39.183Z,69.52
2023-05-01T16:56:11.385Z,70.23
2023-05-01T16:58:41.635Z,71.11
2023-05-01T17:01:11.909Z,71.18
2023-05-01T17:03:44.075Z,69.59
2023-05-01T17:06:14.997Z,68.49
2023-05-01T17:08:45.571Z,64.98
2023-05-01T17:11:16.784Z,63.31
2023-05-01T17:13:47.527Z,62.43
2023-05-01T17:16:17.780Z,65.23
2023-05-01T17:18:48.392Z,63.59
2023-05-01T17:21:18.263Z,65.10
2023-05-01T17:23:49.000Z,62.61
2023-05-01T17:26:19.860Z,65.36
2023-05-01T17:28:51.691Z,64.89
2023-05-01T17:31:22.704Z,61.78
2023-05-01T17:33:53.172Z,59.18
2023-05-01T17:36:25.070Z,57.29
2023-05-01T17:38:55.982Z,57.02
2023-05-01T17:41:27.656Z,57.09
2023-05-01T17:44:01.119Z,55.72
2023-05-01T17:46:32.037Z,55.60
2023-05-01T17:49:04.163Z,54.63
2023-05-01T17:51:34.941Z,54.27
2023-05-01T17:54:05.178Z,55.94
2023-05-01T17:56:36.143Z,55.87
2023-05-01T17:59:06.457Z,58.08
2023-05-01T18:01:36.854Z,60.16
2023-05-01T18:04:07.950Z,59.62
2023-05-01T18:06:38.915Z,61.74
2023-05-01T18:09:11.143Z,61.32
2023-05-01T18:11:41.533Z,61.39
2023-05-01T18:14:11.390Z,60.96
2023-05-01T18:16:42.639Z,60.35
2023-05-01T18:19:12.951Z,57.89
2023-05-01T18:21:44.197Z,57.70
2023-05-01T18:24:15.542Z,56.14
2023-05-01T18:26:45.824Z,55.02
2023-05-01T18:29:16.296Z,53.43
2023-05-01T18:31:48.069Z,54.42
2023-05-01T18:34:20.338Z,56.43
2023-05-01T18:36:53.427Z,59.80
2023-05-01T18:39:24.187Z,62.13
2023-05-01T18:41:56.956Z,64.75
2023-05-01T18:44:26.990Z,60.65
2023-05-01T18:46:56.805Z,57.38
2023-05-01T18:49:27.394Z,57.26
2023-05-01T18:51:57.222Z,59.61
2023-05-01T18:54:28.775Z,57.56
2023-05-01T18:57:00.871Z,58.08
2023-05-01T18:59:32.216Z,57.09
2023-05-01T19:02:03.297Z,57.91
2023-05-01T19:04:49.364Z,61.32
2023-05-01T19:07:26.743Z,66.93
2023-05-01T19:09:58.893Z,71.05
2023-05-01T19:12:32.063Z,73.25
2023-05-01T19:15:02.362Z,74.50
2023-05-01T19:17:33.658Z,75.46
2023-05-01T19:20:05.429Z,76.21
2023-05-01T19:22:36.969Z,76.53
2023-05-01T19:25:07.408Z,77.18
2023-05-01T19:27:37.670Z,78.01
2023-05-01T19:30:09.129Z,78.52
2023-05-01T19:32:40.055Z,78.60
2023-05-01T19:35:13.370Z,79.04
2023-05-01T19:37:43.568Z,79.80
2023-05-01T19:40:14.146Z,79.74
2023-05-01T19:42:45.949Z,80.25
2023-05-01T19:45:17.758Z,79.78
2023-05-01T19:47:48.234Z,79.89
2023-05-01T19:50:21.696Z,80.15
2023-05-01T19:52:52.991Z,79.93
2023-05-01T19:55:22.983Z,79.98
2023-05-01T19:57:55.344Z,80.72
2023-05-01T20:00:30.114Z,81.05
2023-05-01T20:03:01.848Z,80.90
2023-05-01T20:05:33.687Z,81.97
2023-05-01T20:08:05.136Z,82.33
2023-05-01T20:10:36.218Z,82.72
2023-05-01T20:13:12.612Z,83.00
2023-05-01T20:15:44.251Z,83.13
2023-05-01T20:18:15.519Z,83.56
2023-05-01T20:20:46.421Z,83.47
2023-05-01T20:23:20.875Z,83.69
2023-05-01T20:25:54.409Z,83.81
2023-05-01T20:28:24.660Z,84.21
2023-05-01T20:30:55.528Z,84.09
2023-05-01T20:33:27.076Z,85.06
2023-05-01T20:35:57.180Z,84.87
2023-05-01T20:38:29.070Z,84.85
2023-05-01T20:40:59.896Z,85.38
2023-05-01T20:43:30.949Z,85.53
2023-05-01T20:46:01.095Z,85.52
2023-05-01T20:48:31.005Z,85.97
2023-05-01T20:51:01.555Z,86.06
2023-05-01T20:53:32.236Z,86.02
2023-05-01T20:56:04.101Z,86.50
2023-05-01T20:58:34.045Z,86.58
2023-05-01T21:01:11.380Z,87.02
2023-05-01T21:03:43.016Z,86.16
2023-05-01T21:06:17.214Z,87.28
2023-05-01T21:08:48.895Z,87.52
2023-05-01T21:11:19.191Z,87.28
2023-05-01T21:14:21.596Z,87.12
2023-05-01T21:16:55.626Z,87.88
2023-05-01T21:19:25.865Z,87.88
2023-05-01T21:21:56.568Z,88.17
2023-05-01T21:24:27.741Z,88.30
2023-05-01T21:26:58.823Z,88.65
2023-05-01T21:29:30.056Z,88.67
2023-05-01T21:32:05.584Z,88.76
2023-05-01T21:34:37.067Z,89.09
2023-05-01T21:37:11.678Z,89.09
2023-05-01T21:39:42.511Z,89.25
2023-05-01T21:42:15.900Z,89.04
2023-05-01T21:44:46.331Z,88.84
2023-05-01T21:47:17.989Z,88.61
2023-05-01T21:49:48.682Z,88.93
2023-05-01T21:52:19.622Z,89.07
2023-05-01T21:54:50.363Z,89.23
2023-05-01T21:57:21.195Z,89.14
2023-05-01T21:59:52.073Z,89.15
2023-05-01T22:02:22.341Z,89.14
2023-05-01T22:04:56.136Z,89.43
2023-05-01T22:07:28.247Z,89.56
2023-05-01T22:10:00.671Z,89.88
2023-05-01T22:12:31.287Z,89.64
2023-05-01T22:15:01.386Z,89.89
2023-05-01T22:17:32.659Z,90.27
2023-05-01T22:20:04.278Z,90.44
2023-05-01T22:22:37.184Z,90.48
2023-05-01T22:25:10.425Z,90.67
2023-05-01T22:27:40.877Z,90.76
2023-05-01T22:30:12.403Z,91.08
2023-05-01T22:32:44.117Z,91.31
2023-05-01T22:35:14.795Z,91.27
2023-05-01T22:37:45.374Z,91.30
2023-05-01T22:40:17.545Z,91.17
2023-05-01T22:42:50.295Z,91.14
2023-05-01T22:45:20.988Z,91.22
2023-05-01T22:47:51.449Z,91.29
2023-05-01T22:50:23.004Z,91.27
2023-05-01T22:52:54.456Z,91.32
2023-05-01T22:55:25.119Z,91.19
2023-05-01T22:57:56.334Z,90.94
2023-05-01T23:00:37.108Z,90.97
2023-05-01T23:03:13.498Z,90.80
2023-05-01T23:05:47.217Z,90.57
2023-05-01T23:08:23.762Z,90.88
2023-05-01T23:11:08.307Z,90.88
2023-05-01T23:13:52.030Z,91.13
2023-05-01T23:16:22.814Z,90.97
2023-05-01T23:18:53.652Z,91.09
2023-05-01T23:21:24.707Z,91.04
2023-05-01T23:24:11.111Z,91.11
2023-05-01T23:26:46.339Z,91.09
2023-05-01T23:29:20.453Z,91.16
2023-05-01T23:32:09.844Z,91.18
2023-05-01T23:34:45.065Z,91.05
2023-05-01T23:37:37.615Z,90.92
2023-05-01T23:40:36.341Z,90.96
2023-05-01T23:43:11.452Z,91.01
2023-05-01T23:45:43.215Z,90.69
2023-05-01T23:48:14.958Z,90.71
2023-05-01T23:50:48.884Z,90.79
2023-05-01T23:53:35.323Z,90.59
2023-05-01T23:56:07.594Z,90.64
2023-05-01T23:58:41.462Z,90.74
